| time (UTC) | temp C | wind direction | speed KPH | gust KPH | rain 1hr cm | rain 24hr cm | rain mn cm | humidity % | barometer mb |
| 20260510104004 | 18 | 253 | 0.0 | 3.2 | 0.00 | 0.05 | 0.00 | 75 | 1013.3 |
| 20260510103005 | 18 | 252 | 0.0 | 1.6 | 0.00 | 0.10 | 0.00 | 75 | 1013.3 |
| 20260510102504 | 18 | 0 | 0.0 | 0.0 | 0.00 | 0.13 | 0.00 | 75 | 1013.2 |
| 20260510102005 | 18 | 0 | 0.0 | 0.0 | 0.00 | 0.48 | 0.00 | 75 | 1013.1 |
| 20260510101505 | 18 | 0 | 0.0 | 0.0 | 0.00 | 1.12 | 0.00 | 75 | 1013.1 |
| 20260510101005 | 18 | 0 | 0.0 | 0.0 | 0.00 | 1.57 | 0.00 | 75 | 1013.1 |
| 20260510100504 | 18 | 0 | 0.0 | 0.0 | 0.00 | 1.65 | 0.00 | 75 | 1013.0 |
| 20260510100005 | 18 | 0 | 0.0 | 0.0 | 0.00 | 1.65 | 0.00 | 75 | 1013.0 |
| 20260510095505 | 18 | 256 | 0.0 | 4.8 | 0.00 | 1.65 | 0.00 | 75 | 1013.0 |
| 20260510095005 | 18 | 257 | 0.0 | 4.8 | 0.00 | 1.70 | 0.00 | 75 | 1012.9 |
| 20260510094505 | 18 | 266 | 0.0 | 1.6 | 0.00 | 1.91 | 0.00 | 75 | 1012.8 |
| 20260510094005 | 18 | 246 | 0.0 | 3.2 | 0.00 | 1.96 | 0.00 | 75 | 1012.8 |
| 20260510093505 | 18 | 242 | 0.0 | 3.2 | 0.00 | 1.96 | 0.00 | 76 | 1012.8 |
| 20260510093005 | 18 | 279 | 0.0 | 3.2 | 0.00 | 1.96 | 0.00 | 76 | 1012.7 |
| 20260510092504 | 18 | 260 | 0.0 | 3.2 | 0.00 | 1.96 | 0.00 | 76 | 1012.7 |
| 20260510092004 | 18 | 243 | 0.0 | 3.2 | 0.00 | 1.96 | 0.00 | 76 | 1012.6 |
| 20260510091504 | 18 | 80 | 0.0 | 1.6 | 0.00 | 1.96 | 0.00 | 76 | 1012.4 |
| 20260510091005 | 18 | 80 | 0.0 | 1.6 | 0.00 | 1.96 | 0.00 | 76 | 1012.4 |
| 20260510090505 | 18 | 80 | 0.0 | 1.6 | 0.00 | 1.96 | 0.00 | 76 | 1012.4 |
| 20260510085504 | 18 | 80 | 0.0 | 3.2 | 0.00 | 1.96 | 0.00 | 76 | 1012.4 |
| 20260510084504 | 18 | 0 | 0.0 | 0.0 | 0.00 | 1.96 | 0.00 | 76 | 1012.4 |
| 20260510084004 | 18 | 0 | 0.0 | 0.0 | 0.00 | 1.96 | 0.00 | 76 | 1012.4 |
| 20260510083504 | 18 | 0 | 0.0 | 0.0 | 0.00 | 1.96 | 0.00 | 76 | 1012.4 |
| 20260510083005 | 18 | 0 | 0.0 | 0.0 | 0.00 | 1.96 | 0.00 | 76 | 1012.4 |
| 20260510082505 | 18 | 0 | 0.0 | 0.0 | 0.00 | 1.96 | 0.00 | 76 | 1012.3 |
| 20260510082004 | 18 | 148 | 0.0 | 3.2 | 0.00 | 1.96 | 0.00 | 76 | 1012.3 |
| 20260510081005 | 18 | 79 | 0.0 | 1.6 | 0.00 | 1.96 | 0.00 | 77 | 1012.3 |
| 20260510080505 | 18 | 79 | 0.0 | 1.6 | 0.00 | 1.96 | 0.00 | 77 | 1012.2 |
| 20260510080004 | 18 | 79 | 0.0 | 3.2 | 0.00 | 1.96 | 0.00 | 77 | 1012.1 |
| 20260510075504 | 18 | 79 | 0.0 | 3.2 | 0.00 | 1.96 | 0.00 | 77 | 1012.0 |
| 20260510075005 | 18 | 79 | 0.0 | 1.6 | 0.00 | 1.96 | 0.00 | 77 | 1012.0 |
| 20260510074504 | 18 | 79 | 0.0 | 1.6 | 0.00 | 1.96 | 0.00 | 77 | 1012.0 |
| 20260510074004 | 18 | 79 | 0.0 | 1.6 | 0.00 | 1.96 | 0.00 | 77 | 1011.9 |
| 20260510073504 | 18 | 79 | 0.0 | 1.6 | 0.00 | 1.96 | 0.00 | 77 | 1011.9 |
| 20260510073004 | 18 | 79 | 0.0 | 1.6 | 0.00 | 1.96 | 0.00 | 77 | 1011.8 |
| 20260510071504 | 18 | 0 | 0.0 | 0.0 | 0.00 | 1.96 | 0.00 | 77 | 1011.7 |
| 20260510070504 | 18 | 89 | 0.0 | 3.2 | 0.00 | 1.96 | 0.00 | 77 | 1011.7 |
| 20260510070004 | 18 | 100 | 0.0 | 3.2 | 0.00 | 1.96 | 0.00 | 77 | 1011.7 |
| 20260510065504 | 18 | 205 | 0.0 | 1.6 | 0.00 | 1.96 | 0.00 | 77 | 1011.8 |
| 20260510064504 | 19 | 0 | 0.0 | 0.0 | 0.00 | 1.96 | 0.00 | 78 | 1011.9 |
| 20260510064004 | 19 | 0 | 0.0 | 0.0 | 0.00 | 1.96 | 0.00 | 78 | 1011.9 |
| 20260510063504 | 18 | 0 | 0.0 | 0.0 | 0.00 | 1.96 | 0.00 | 78 | 1011.8 |
| 20260510063005 | 18 | 0 | 0.0 | 0.0 | 0.00 | 1.96 | 0.00 | 78 | 1011.9 |
| 20260510062504 | 18 | 0 | 0.0 | 0.0 | 0.00 | 1.96 | 0.00 | 78 | 1011.9 |
| 20260510062004 | 19 | 205 | 0.0 | 1.6 | 0.00 | 1.96 | 0.00 | 78 | 1011.9 |
| 20260510061504 | 19 | 204 | 0.0 | 1.6 | 0.00 | 1.96 | 0.00 | 78 | 1011.9 |
| 20260510061004 | 19 | 205 | 0.0 | 1.6 | 0.00 | 1.96 | 0.00 | 78 | 1011.9 |
| 20260510060504 | 19 | 226 | 0.0 | 3.2 | 0.00 | 1.96 | 0.00 | 78 | 1011.8 |
| 20260510060004 | 19 | 229 | 0.0 | 4.8 | 0.00 | 1.96 | 0.00 | 78 | 1011.8 |
| 20260510055504 | 19 | 225 | 0.0 | 4.8 | 0.00 | 1.96 | 0.00 | 78 | 1012.0 |
| 20260510055005 | 19 | 223 | 0.0 | 3.2 | 0.00 | 1.96 | 0.00 | 78 | 1011.9 |
| 20260510054504 | 19 | 230 | 1.6 | 4.8 | 0.00 | 1.96 | 0.00 | 78 | 1012.0 |
| 20260510054004 | 19 | 227 | 1.6 | 4.8 | 0.00 | 1.96 | 0.00 | 78 | 1012.0 |
| 20260510053504 | 19 | 160 | 0.0 | 3.2 | 0.00 | 1.96 | 0.00 | 78 | 1011.9 |
| 20260510052504 | 19 | 210 | 0.0 | 3.2 | 0.00 | 1.96 | 0.00 | 78 | 1011.9 |
| 20260510052005 | 19 | 208 | 0.0 | 3.2 | 0.00 | 1.96 | 0.00 | 78 | 1011.9 |
| 20260510051505 | 19 | 90 | 0.0 | 1.6 | 0.00 | 1.96 | 0.00 | 78 | 1012.0 |
| 20260510050505 | 19 | 90 | 0.0 | 1.6 | 0.00 | 1.96 | 0.00 | 78 | 1012.0 |
| 20260510045505 | 19 | 124 | 0.0 | 3.2 | 0.00 | 1.96 | 1.96 | 78 | 1012.0 |
| 20260510045005 | 19 | 148 | 0.0 | 1.6 | 0.00 | 1.96 | 1.96 | 78 | 1012.1 |
| 20260510044505 | 19 | 147 | 0.0 | 1.6 | 0.00 | 1.96 | 1.96 | 78 | 1012.0 |
| 20260510043505 | 19 | 179 | 0.0 | 1.6 | 0.00 | 1.96 | 1.96 | 78 | 1012.1 |
| 20260510043005 | 19 | 190 | 0.0 | 1.6 | 0.00 | 1.96 | 1.96 | 78 | 1012.1 |
| 20260510042505 | 19 | 221 | 0.0 | 3.2 | 0.00 | 1.96 | 1.96 | 78 | 1012.1 |
| 20260510042005 | 19 | 220 | 0.0 | 3.2 | 0.00 | 1.96 | 1.96 | 78 | 1012.3 |
| 20260510041505 | 19 | 105 | 0.0 | 1.6 | 0.00 | 1.96 | 1.96 | 78 | 1012.3 |
| 20260510041005 | 19 | 97 | 0.0 | 1.6 | 0.00 | 1.96 | 1.96 | 78 | 1012.2 |
| 20260510040505 | 19 | 74 | 0.0 | 3.2 | 0.00 | 1.96 | 1.96 | 78 | 1012.3 |
| 20260510040005 | 19 | 76 | 0.0 | 3.2 | 0.00 | 1.96 | 1.96 | 78 | 1012.0 |
| 20260510035005 | 19 | 76 | 0.0 | 3.2 | 0.00 | 1.96 | 1.96 | 79 | 1012.0 |
| 20260510034505 | 19 | 79 | 0.0 | 1.6 | 0.00 | 1.96 | 1.96 | 79 | 1012.1 |
| 20260510033005 | 19 | 80 | 1.6 | 3.2 | 0.00 | 1.96 | 1.96 | 79 | 1012.0 |
| 20260510032505 | 19 | 84 | 1.6 | 4.8 | 0.00 | 1.96 | 1.96 | 79 | 1012.1 |
| 20260510032005 | 19 | 88 | 0.0 | 4.8 | 0.00 | 1.96 | 1.96 | 79 | 1012.2 |
| 20260510031505 | 19 | 0 | 0.0 | 0.0 | 0.00 | 1.96 | 1.96 | 79 | 1012.4 |
| 20260510030504 | 19 | 104 | 0.0 | 3.2 | 0.00 | 1.96 | 1.96 | 79 | 1012.3 |
| 20260510030005 | 19 | 104 | 0.0 | 1.6 | 0.00 | 1.96 | 1.96 | 79 | 1012.5 |
| 20260510025506 | 19 | 109 | 0.0 | 1.6 | 0.00 | 1.96 | 1.96 | 79 | 1012.4 |
| 20260510025005 | 19 | 117 | 0.0 | 1.6 | 0.00 | 1.96 | 1.96 | 79 | 1012.3 |
| 20260510024505 | 19 | 225 | 0.0 | 3.2 | 0.00 | 1.96 | 1.96 | 79 | 1012.3 |
| 20260510024005 | 19 | 225 | 0.0 | 3.2 | 0.00 | 1.96 | 1.96 | 79 | 1012.3 |
| 20260510023504 | 19 | 0 | 0.0 | 0.0 | 0.00 | 1.96 | 1.96 | 79 | 1012.2 |
| 20260510023004 | 19 | 76 | 0.0 | 3.2 | 0.00 | 1.96 | 1.96 | 79 | 1011.9 |
| 20260510022505 | 19 | 79 | 0.0 | 3.2 | 0.00 | 1.96 | 1.96 | 79 | 1011.8 |
| 20260510022005 | 19 | 82 | 0.0 | 3.2 | 0.00 | 1.96 | 1.96 | 79 | 1011.7 |
| 20260510021505 | 19 | 84 | 0.0 | 1.6 | 0.00 | 1.96 | 1.96 | 79 | 1011.8 |
| 20260510021005 | 19 | 84 | 0.0 | 1.6 | 0.00 | 1.96 | 1.96 | 79 | 1012.0 |
| 20260510020505 | 19 | 84 | 0.0 | 3.2 | 0.00 | 1.96 | 1.96 | 80 | 1011.9 |
| 20260510020004 | 19 | 83 | 0.0 | 3.2 | 0.00 | 1.96 | 1.96 | 80 | 1011.7 |
| 20260510015504 | 19 | 82 | 0.0 | 3.2 | 0.00 | 1.96 | 1.96 | 80 | 1011.6 |
| 20260510014505 | 19 | 83 | 0.0 | 1.6 | 0.00 | 1.96 | 1.96 | 80 | 1011.6 |
| 20260510013504 | 19 | 83 | 0.0 | 1.6 | 0.00 | 1.96 | 1.96 | 81 | 1011.1 |
| 20260510013005 | 19 | 0 | 0.0 | 0.0 | 0.00 | 1.96 | 1.96 | 81 | 1010.9 |
| 20260510012505 | 20 | 0 | 0.0 | 0.0 | 0.00 | 1.96 | 1.96 | 82 | 1010.9 |
| 20260510012005 | 20 | 0 | 0.0 | 0.0 | 0.00 | 1.96 | 1.96 | 82 | 1011.2 |
| 20260510011504 | 20 | 0 | 0.0 | 0.0 | 0.00 | 1.96 | 1.96 | 82 | 1011.3 |
| 20260510011004 | 20 | 0 | 0.0 | 0.0 | 0.00 | 1.96 | 1.96 | 82 | 1011.1 |
| 20260510010504 | 20 | 0 | 0.0 | 0.0 | 0.00 | 1.96 | 1.96 | 83 | 1011.2 |
| 20260510010005 | 20 | 0 | 0.0 | 0.0 | 0.00 | 1.96 | 1.96 | 83 | 1011.1 |
| 20260510005505 | 20 | 0 | 0.0 | 0.0 | 0.00 | 1.96 | 1.96 | 83 | 1010.9 |
| 20260510004504 | 20 | 0 | 0.0 | 0.0 | 0.00 | 1.96 | 1.96 | 83 | 1010.7 |
| 20260510004004 | 20 | 0 | 0.0 | 0.0 | 0.00 | 1.96 | 1.96 | 83 | 1010.8 |
| 20260510002504 | 20 | 0 | 0.0 | 0.0 | 0.00 | 1.96 | 1.96 | 83 | 1010.6 |
| 20260510002005 | 20 | 0 | 0.0 | 0.0 | 0.00 | 1.96 | 1.96 | 84 | 1010.6 |
| 20260510001505 | 20 | 0 | 0.0 | 0.0 | 0.00 | 1.96 | 1.96 | 84 | 1010.6 |
| 20260510001004 | 20 | 241 | 0.0 | 1.6 | 0.00 | 1.96 | 1.96 | 84 | 1010.5 |
| 20260510000504 | 20 | 241 | 0.0 | 1.6 | 0.00 | 1.96 | 1.96 | 84 | 1010.4 |
| 20260510000004 | 20 | 249 | 0.0 | 4.8 | 0.00 | 1.96 | 1.96 | 84 | 1010.5 |
| 20260509235504 | 20 | 245 | 1.6 | 4.8 | 0.00 | 1.96 | 1.96 | 84 | 1010.5 |
| 20260509235005 | 20 | 227 | 1.6 | 6.4 | 0.00 | 1.96 | 1.96 | 84 | 1010.4 |
| 20260509234505 | 20 | 222 | 1.6 | 8.0 | 0.00 | 1.96 | 1.96 | 84 | 1010.4 |
| 20260509233504 | 20 | 223 | 3.2 | 8.0 | 0.00 | 1.96 | 1.96 | 84 | 1010.5 |
| 20260509233004 | 20 | 222 | 1.6 | 11.3 | 0.00 | 1.96 | 1.96 | 84 | 1010.5 |
| 20260509232004 | 21 | 220 | 0.0 | 4.8 | 0.00 | 1.96 | 1.96 | 84 | 1010.3 |
| 20260509231505 | 21 | 210 | 0.0 | 4.8 | 0.00 | 1.96 | 1.96 | 84 | 1010.2 |
| 20260509231005 | 20 | 215 | 1.6 | 6.4 | 0.00 | 1.96 | 1.96 | 84 | 1010.3 |
| 20260509230505 | 20 | 222 | 3.2 | 8.0 | 0.00 | 1.96 | 1.96 | 84 | 1010.4 |
| 20260509225504 | 21 | 225 | 1.6 | 9.7 | 0.00 | 1.96 | 1.96 | 84 | 1010.3 |
| 20260509225004 | 21 | 229 | 1.6 | 9.7 | 0.00 | 1.96 | 1.96 | 84 | 1010.2 |
| 20260509224504 | 21 | 223 | 1.6 | 8.0 | 0.00 | 1.96 | 1.96 | 84 | 1010.1 |
| 20260509224005 | 20 | 223 | 3.2 | 8.0 | 0.00 | 1.96 | 1.96 | 84 | 1010.0 |
| 20260509223504 | 20 | 225 | 3.2 | 8.0 | 0.00 | 1.96 | 1.96 | 84 | 1010.0 |
| 20260509223005 | 20 | 232 | 3.2 | 8.0 | 0.00 | 1.96 | 1.96 | 84 | 1009.9 |
| 20260509222505 | 20 | 224 | 3.2 | 8.0 | 0.00 | 1.96 | 1.96 | 84 | 1009.8 |
| 20260509222004 | 21 | 218 | 3.2 | 8.0 | 0.00 | 1.96 | 1.96 | 84 | 1010.0 |
| 20260509221504 | 21 | 226 | 3.2 | 6.4 | 0.00 | 1.96 | 1.96 | 84 | 1009.8 |
| 20260509221004 | 21 | 223 | 1.6 | 6.4 | 0.00 | 1.96 | 1.96 | 84 | 1009.8 |
| 20260509220004 | 21 | 228 | 1.6 | 4.8 | 0.00 | 1.96 | 1.96 | 84 | 1009.8 |
| 20260509215505 | 21 | 230 | 1.6 | 9.7 | 0.00 | 1.96 | 1.96 | 84 | 1009.8 |
| 20260509215004 | 21 | 229 | 3.2 | 11.3 | 0.00 | 1.96 | 1.96 | 84 | 1009.7 |
| 20260509214504 | 21 | 229 | 3.2 | 11.3 | 0.00 | 1.96 | 1.96 | 84 | 1009.8 |
| 20260509214004 | 21 | 228 | 1.6 | 4.8 | 0.00 | 1.96 | 1.96 | 84 | 1009.8 |
| 20260509213504 | 21 | 226 | 1.6 | 4.8 | 0.00 | 1.96 | 1.96 | 84 | 1009.9 |
| 20260509213005 | 21 | 229 | 1.6 | 6.4 | 0.00 | 1.96 | 1.96 | 84 | 1010.0 |
| 20260509212504 | 21 | 228 | 3.2 | 12.9 | 0.00 | 1.96 | 1.96 | 84 | 1010.2 |
| 20260509212004 | 21 | 218 | 3.2 | 12.9 | 0.00 | 1.96 | 1.96 | 84 | 1010.1 |
| 20260509211504 | 21 | 215 | 3.2 | 8.0 | 0.00 | 1.96 | 1.96 | 84 | 1009.8 |
| 20260509211004 | 21 | 219 | 3.2 | 11.3 | 0.00 | 1.96 | 1.96 | 84 | 1009.9 |
| 20260509210504 | 22 | 225 | 3.2 | 11.3 | 0.00 | 1.96 | 1.96 | 84 | 1009.9 |
| 20260509210004 | 22 | 244 | 1.6 | 11.3 | 0.00 | 1.96 | 1.96 | 84 | 1009.6 |
| 20260509205504 | 22 | 248 | 0.0 | 3.2 | 0.00 | 1.96 | 1.96 | 84 | 1009.7 |
| 20260509205005 | 22 | 217 | 0.0 | 4.8 | 0.00 | 1.96 | 1.96 | 84 | 1009.6 |
| 20260509203504 | 23 | 234 | 1.6 | 12.9 | 0.00 | 1.96 | 1.96 | 83 | 1009.8 |
| 20260509203004 | 23 | 226 | 1.6 | 9.7 | 0.00 | 1.96 | 1.96 | 83 | 1009.8 |
| 20260509202504 | 23 | 208 | 1.6 | 14.5 | 0.00 | 1.96 | 1.96 | 83 | 1009.7 |
| 20260509202004 | 24 | 203 | 1.6 | 14.5 | 0.00 | 1.96 | 1.96 | 82 | 1009.7 |
| 20260509201505 | 24 | 228 | 0.0 | 3.2 | 0.00 | 1.96 | 1.96 | 82 | 1009.7 |
| 20260509201005 | 24 | 220 | 0.0 | 1.6 | 0.00 | 1.96 | 1.96 | 82 | 1009.7 |
| 20260509200505 | 24 | 217 | 1.6 | 4.8 | 0.00 | 1.96 | 1.96 | 82 | 1009.8 |
| 20260509200005 | 24 | 217 | 1.6 | 4.8 | 0.00 | 1.96 | 1.96 | 81 | 1010.0 |
| 20260509195506 | 24 | 220 | 0.0 | 3.2 | 0.00 | 1.96 | 1.96 | 82 | 1010.0 |
| 20260509195005 | 24 | 0 | 0.0 | 0.0 | 0.00 | 1.96 | 1.96 | 83 | 1010.0 |
| 20260509194505 | 24 | 0 | 0.0 | 0.0 | 0.00 | 1.96 | 1.96 | 82 | 1010.0 |
| 20260509194005 | 24 | 218 | 0.0 | 3.2 | 0.00 | 1.96 | 1.96 | 82 | 1009.9 |
| 20260509193505 | 24 | 193 | 1.6 | 3.2 | 0.00 | 1.96 | 1.96 | 80 | 1009.8 |
| 20260509193005 | 24 | 73 | 1.6 | 3.2 | 0.00 | 1.96 | 1.96 | 81 | 1009.8 |
| 20260509192005 | 24 | 93 | 0.0 | 3.2 | 0.00 | 1.96 | 1.96 | 81 | 1009.9 |
| 20260509191505 | 24 | 78 | 0.0 | 3.2 | 0.00 | 1.96 | 1.96 | 82 | 1009.9 |
| 20260509191005 | 24 | 94 | 0.0 | 1.6 | 0.00 | 1.96 | 1.96 | 82 | 1010.2 |
| 20260509190006 | 24 | 85 | 0.0 | 1.6 | 0.00 | 1.96 | 1.96 | 82 | 1010.4 |
| 20260509185505 | 24 | 72 | 0.0 | 3.2 | 0.00 | 1.96 | 1.96 | 82 | 1010.3 |
| 20260509185005 | 24 | 86 | 1.6 | 3.2 | 0.00 | 1.96 | 1.96 | 81 | 1010.3 |
| 20260509184504 | 24 | 150 | 0.0 | 3.2 | 0.00 | 1.96 | 1.96 | 81 | 1010.3 |
| 20260509184005 | 24 | 186 | 0.0 | 1.6 | 0.00 | 1.96 | 1.96 | 81 | 1010.2 |
| 20260509183505 | 23 | 80 | 0.0 | 1.6 | 0.00 | 1.96 | 1.96 | 82 | 1010.2 |
| 20260509182505 | 23 | 78 | 0.0 | 4.8 | 0.00 | 1.98 | 1.96 | 82 | 1010.4 |
| 20260509182004 | 23 | 80 | 0.0 | 4.8 | 0.00 | 1.98 | 1.96 | 81 | 1010.4 |
| 20260509181505 | 24 | 90 | 0.0 | 1.6 | 0.00 | 1.98 | 1.96 | 83 | 1010.4 |
| 20260509181005 | 24 | 89 | 0.0 | 3.2 | 0.00 | 1.98 | 1.96 | 82 | 1010.3 |
| 20260509180504 | 24 | 90 | 0.0 | 3.2 | 0.00 | 1.98 | 1.96 | 81 | 1010.2 |
| 20260509175505 | 24 | 82 | 1.6 | 6.4 | 0.00 | 1.98 | 1.96 | 82 | 1010.4 |
| 20260509175005 | 23 | 81 | 1.6 | 6.4 | 0.00 | 1.98 | 1.96 | 82 | 1010.4 |
| 20260509174505 | 24 | 84 | 1.6 | 6.4 | 0.00 | 1.98 | 1.96 | 82 | 1010.4 |
| 20260509174005 | 23 | 60 | 1.6 | 6.4 | 0.00 | 1.98 | 1.96 | 83 | 1010.5 |
| 20260509173505 | 23 | 48 | 1.6 | 6.4 | 0.00 | 1.98 | 1.96 | 82 | 1010.3 |
| 20260509173005 | 23 | 311 | 1.6 | 3.2 | 0.00 | 1.98 | 1.96 | 82 | 1010.5 |
| 20260509172505 | 23 | 334 | 1.6 | 3.2 | 0.00 | 1.98 | 1.96 | 82 | 1010.5 |
| 20260509172005 | 23 | 85 | 0.0 | 3.2 | 0.00 | 1.98 | 1.96 | 83 | 1010.9 |
| 20260509170505 | 22 | 36 | 1.6 | 4.8 | 0.00 | 1.98 | 1.96 | 83 | 1011.1 |
| 20260509170005 | 22 | 77 | 1.6 | 8.0 | 0.00 | 1.98 | 1.96 | 84 | 1011.1 |
| 20260509165505 | 22 | 67 | 3.2 | 8.0 | 0.00 | 1.98 | 1.96 | 83 | 1011.0 |
| 20260509165005 | 22 | 46 | 1.6 | 4.8 | 0.00 | 1.98 | 1.96 | 83 | 1010.9 |
| 20260509164005 | 22 | 320 | 1.6 | 4.8 | 0.00 | 2.01 | 1.96 | 83 | 1010.9 |
| 20260509163504 | 22 | 20 | 1.6 | 4.8 | 0.00 | 2.01 | 1.96 | 83 | 1011.0 |
| 20260509162505 | 21 | 60 | 1.6 | 4.8 | 0.00 | 2.01 | 1.96 | 83 | 1011.2 |
| 20260509162004 | 21 | 68 | 1.6 | 4.8 | 0.00 | 2.01 | 1.96 | 82 | 1011.2 |
| 20260509161505 | 21 | 72 | 1.6 | 6.4 | 0.00 | 2.01 | 1.96 | 82 | 1011.4 |
| 20260509161005 | 21 | 62 | 1.6 | 6.4 | 0.00 | 2.01 | 1.96 | 80 | 1011.5 |
| 20260509160504 | 21 | 42 | 1.6 | 6.4 | 0.00 | 2.01 | 1.96 | 79 | 1011.5 |
| 20260509155504 | 20 | 69 | 1.6 | 6.4 | 0.00 | 2.01 | 1.96 | 76 | 1011.7 |
| 20260509155004 | 20 | 55 | 0.0 | 4.8 | 0.00 | 2.03 | 1.96 | 74 | 1011.7 |
| 20260509154504 | 20 | 32 | 0.0 | 4.8 | 0.00 | 2.06 | 1.96 | 73 | 1011.8 |
| 20260509153504 | 20 | 53 | 0.0 | 3.2 | 0.00 | 2.11 | 1.96 | 73 | 1011.5 |
| 20260509153005 | 20 | 21 | 0.0 | 1.6 | 0.00 | 2.16 | 1.96 | 72 | 1011.5 |
| 20260509152504 | 20 | 13 | 0.0 | 1.6 | 0.00 | 2.44 | 1.96 | 73 | 1011.6 |
| 20260509152004 | 20 | 12 | 0.0 | 1.6 | 0.00 | 2.97 | 1.96 | 73 | 1011.5 |
| 20260509151505 | 20 | 40 | 0.0 | 3.2 | 0.00 | 3.25 | 1.96 | 72 | 1011.4 |
| 20260509151005 | 20 | 52 | 1.6 | 3.2 | 0.00 | 3.38 | 1.96 | 73 | 1011.3 |
| 20260509150505 | 20 | 61 | 1.6 | 4.8 | 0.00 | 3.43 | 1.96 | 73 | 1011.3 |
| 20260509150005 | 20 | 45 | 0.0 | 4.8 | 0.00 | 3.45 | 1.96 | 73 | 1011.3 |
| 20260509145504 | 20 | 13 | 0.0 | 3.2 | 0.00 | 3.51 | 1.96 | 73 | 1011.5 |
| 20260509145005 | 20 | 91 | 0.0 | 1.6 | 0.00 | 3.53 | 1.96 | 73 | 1011.5 |
| 20260509144504 | 20 | 0 | 0.0 | 0.0 | 0.00 | 3.58 | 1.96 | 73 | 1011.6 |
| 20260509144004 | 20 | 91 | 0.0 | 1.6 | 0.00 | 3.61 | 1.96 | 73 | 1011.7 |
| 20260509143504 | 19 | 100 | 0.0 | 1.6 | 0.00 | 3.63 | 1.96 | 73 | 1011.8 |
| 20260509143004 | 19 | 103 | 0.0 | 1.6 | 0.00 | 3.66 | 1.96 | 74 | 1011.5 |
| 20260509142504 | 19 | 194 | 0.0 | 1.6 | 0.00 | 3.68 | 1.96 | 74 | 1011.5 |
| 20260509142005 | 19 | 194 | 0.0 | 1.6 | 0.00 | 3.71 | 1.96 | 74 | 1011.7 |
| 20260509141005 | 19 | 0 | 0.0 | 0.0 | 0.00 | 3.73 | 1.96 | 74 | 1011.7 |
| 20260509140005 | 19 | 159 | 0.0 | 1.6 | 0.00 | 3.73 | 1.96 | 74 | 1011.7 |
| 20260509135504 | 19 | 159 | 0.0 | 1.6 | 0.00 | 3.73 | 1.96 | 74 | 1011.8 |
| 20260509135004 | 19 | 0 | 0.0 | 0.0 | 0.00 | 3.73 | 1.96 | 74 | 1011.6 |
| 20260509134504 | 19 | 0 | 0.0 | 0.0 | 0.00 | 3.73 | 1.96 | 74 | 1011.4 |
| 20260509133005 | 18 | 158 | 0.0 | 3.2 | 0.00 | 3.73 | 1.96 | 74 | 1010.8 |
| 20260509132504 | 18 | 22 | 0.0 | 1.6 | 0.00 | 3.73 | 1.96 | 74 | 1010.7 |
| 20260509132004 | 18 | 22 | 0.0 | 1.6 | 0.00 | 3.73 | 1.96 | 74 | 1010.5 |
| 20260509131504 | 18 | 0 | 0.0 | 0.0 | 0.00 | 3.73 | 1.96 | 74 | 1010.2 |
| 20260509131004 | 18 | 293 | 0.0 | 4.8 | 0.00 | 3.73 | 1.96 | 74 | 1010.4 |
| 20260509130504 | 18 | 203 | 0.0 | 4.8 | 0.00 | 3.73 | 1.96 | 75 | 1010.3 |
| 20260509130005 | 18 | 148 | 0.0 | 1.6 | 0.00 | 3.73 | 1.96 | 75 | 1010.2 |
| 20260509125504 | 18 | 0 | 0.0 | 0.0 | 0.00 | 3.73 | 1.96 | 75 | 1010.1 |
| 20260509125004 | 18 | 0 | 0.0 | 0.0 | 0.00 | 3.73 | 1.96 | 75 | 1009.9 |
| 20260509124504 | 18 | 0 | 0.0 | 0.0 | 0.00 | 3.73 | 1.96 | 75 | 1010.0 |
| 20260509124004 | 18 | 0 | 0.0 | 0.0 | 0.00 | 3.73 | 1.96 | 75 | 1010.1 |
| 20260509123004 | 18 | 231 | 0.0 | 3.2 | 0.00 | 3.73 | 1.96 | 75 | 1009.6 |
| 20260509122504 | 18 | 232 | 1.6 | 4.8 | 0.00 | 3.73 | 1.96 | 75 | 1009.2 |
| 20260509121504 | 18 | 107 | 0.0 | 3.2 | 0.03 | 3.73 | 1.96 | 75 | 1009.2 |
| 20260509121004 | 18 | 91 | 1.6 | 12.9 | 0.03 | 3.73 | 1.96 | 75 | 1009.3 |
| 20260509120504 | 18 | 72 | 3.2 | 12.9 | 0.05 | 3.73 | 1.96 | 75 | 1009.3 |
| 20260509120004 | 18 | 69 | 3.2 | 11.3 | 0.05 | 3.73 | 1.96 | 75 | 1009.2 |
| 20260509115504 | 18 | 79 | 1.6 | 11.3 | 0.05 | 3.73 | 1.96 | 75 | 1009.5 |
| 20260509114503 | 18 | 87 | 3.2 | 12.9 | 0.05 | 3.73 | 1.96 | 75 | 1009.2 |
| 20260509114004 | 18 | 83 | 3.2 | 12.9 | 0.08 | 3.73 | 1.96 | 75 | 1008.9 |
| 20260509113504 | 18 | 81 | 1.6 | 4.8 | 0.10 | 3.73 | 1.96 | 75 | 1009.0 |
| 20260509113003 | 18 | 77 | 1.6 | 4.8 | 0.13 | 3.73 | 1.96 | 75 | 1009.0 |
| 20260509112504 | 18 | 70 | 1.6 | 6.4 | 0.48 | 3.73 | 1.96 | 75 | 1009.0 |
| 20260509112004 | 18 | 72 | 1.6 | 8.0 | 1.12 | 3.73 | 1.96 | 75 | 1008.9 |
| 20260509111004 | 18 | 72 | 1.6 | 6.4 | 1.63 | 3.71 | 1.93 | 75 | 1009.7 |
| 20260509110505 | 18 | 69 | 1.6 | 6.4 | 1.60 | 3.68 | 1.91 | 75 | 1009.6 |
| 20260509105505 | 18 | 31 | 1.6 | 4.8 | 1.65 | 3.68 | 1.91 | 75 | 1010.1 |
| 20260509105005 | 18 | 57 | 1.6 | 4.8 | 1.80 | 3.68 | 1.91 | 75 | 1009.7 |